Time,TemperatureF,DewpointF,PressureIn,WindDirection,WindDirectionDegrees,WindSpeedMPH,WindSpeedGustMPH,Humidity,HourlyPrecipIn,Conditions,Clouds,dailyrainin,SoftwareType,DateUTC
2013-03-04 00:00:00,38.5,20.5,30.11,South,180,0.0,0.2,48,0.00,OVC,,0.00,WeatherDisplay:10.37,2013-03-04 06:00:00,
2013-03-04 00:05:00,38.5,20.5,30.11,South,180,0.0,0.2,48,0.00,OVC,,0.00,WeatherDisplay:10.37,2013-03-04 06:05:00,
2013-03-04 00:10:00,38.5,20.5,30.11,South,180,0.0,0.2,48,0.00,OVC,,0.00,WeatherDisplay:10.37,2013-03-04 06:10:00,
2013-03-04 00:14:00,38.5,20.5,30.11,ESE,118,0.0,0.0,48,0.00,OVC,,0.00,WeatherDisplay:10.37,2013-03-04 06:14:00,
2013-03-04 00:15:00,38.5,20.5,30.11,South,180,0.0,0.2,48,0.00,OVC,,0.00,WeatherDisplay:10.37,2013-03-04 06:15:00,
2013-03-04 00:20:00,38.5,20.5,30.11,South,180,0.0,0.2,48,0.00,OVC,,0.00,WeatherDisplay:10.37,2013-03-04 06:20:00,
2013-03-04 00:25:00,38.5,20.5,30.11,South,180,0.0,0.2,48,0.00,OVC,,0.00,WeatherDisplay:10.37,2013-03-04 06:25:00,
2013-03-04 00:30:00,38.5,20.5,30.11,South,180,0.0,0.2,48,0.00,OVC,,0.00,WeatherDisplay:10.37,2013-03-04 06:30:00,
2013-03-04 00:35:00,38.5,20.5,30.11,South,180,0.0,0.2,48,0.00,OVC,,0.00,WeatherDisplay:10.37,2013-03-04 06:35:00,
2013-03-04 00:40:00,38.5,20.5,30.11,South,180,0.0,0.2,48,0.00,OVC,,0.00,WeatherDisplay:10.37,2013-03-04 06:40:00,
2013-03-04 00:45:00,38.5,20.5,30.11,South,180,0.0,0.2,48,0.00,OVC,,0.00,WeatherDisplay:10.37,2013-03-04 06:45:00,
2013-03-04 00:50:00,38.5,20.5,30.11,South,180,0.0,0.2,48,0.00,OVC,,0.00,WeatherDisplay:10.37,2013-03-04 06:50:00,
2013-03-04 00:55:00,38.5,20.5,30.11,South,180,0.0,0.2,48,0.00,OVC,,0.00,WeatherDisplay:10.37,2013-03-04 06:55:00,
2013-03-04 01:00:00,38.5,20.5,30.11,South,180,0.0,0.2,48,0.00,OVC,,0.00,WeatherDisplay:10.37,2013-03-04 07:00:00,
2013-03-04 01:05:00,38.5,20.5,30.11,South,180,0.0,0.2,48,0.00,OVC,,0.00,WeatherDisplay:10.37,2013-03-04 07:05:00,
2013-03-04 01:10:00,38.5,20.5,30.11,South,180,0.0,0.2,48,0.00,OVC,,0.00,WeatherDisplay:10.37,2013-03-04 07:10:00,
2013-03-04 01:14:00,38.5,20.5,30.11,ESE,118,0.0,0.0,48,0.00,OVC,,0.00,WeatherDisplay:10.37,2013-03-04 07:14:00,
2013-03-04 01:15:00,38.5,20.5,30.11,South,180,0.0,0.2,48,0.00,OVC,,0.00,WeatherDisplay:10.37,2013-03-04 07:15:00,
2013-03-04 01:20:00,38.5,20.5,30.11,South,180,0.0,0.2,48,0.00,OVC,,0.00,WeatherDisplay:10.37,2013-03-04 07:20:00,
2013-03-04 01:25:00,38.5,20.5,30.11,South,180,0.0,0.2,48,0.00,OVC,,0.00,WeatherDisplay:10.37,2013-03-04 07:25:00,
2013-03-04 01:30:00,38.5,20.5,30.11,South,180,0.0,0.2,48,0.00,OVC,,0.00,WeatherDisplay:10.37,2013-03-04 07:30:00,
2013-03-04 01:35:00,38.5,20.5,30.11,South,180,0.0,0.2,48,0.00,OVC,,0.00,WeatherDisplay:10.37,2013-03-04 07:35:00,
2013-03-04 01:40:00,38.5,20.5,30.11,South,180,0.0,0.2,48,0.00,OVC,,0.00,WeatherDisplay:10.37,2013-03-04 07:40:00,
2013-03-04 01:45:00,38.5,20.5,30.11,South,180,0.0,0.2,48,0.00,-RA,,0.00,WeatherDisplay:10.37,2013-03-04 07:45:00,
2013-03-04 01:50:00,38.5,20.5,30.11,South,180,0.0,0.2,48,0.00,-RA,,0.00,WeatherDisplay:10.37,2013-03-04 07:50:00,
2013-03-04 01:55:00,38.5,20.5,30.11,South,180,0.0,0.2,48,0.00,-RA,,0.00,WeatherDisplay:10.37,2013-03-04 07:55:00,
2013-03-04 02:00:00,37.2,28.0,30.00,ESE,112,1.1,1.3,69,0.00,-RA,,0.00,WeatherDisplay:10.37,2013-03-04 08:00:00,
2013-03-04 02:05:00,37.2,28.0,30.00,ESE,112,2.3,2.3,69,0.00,-RA,,0.00,WeatherDisplay:10.37,2013-03-04 08:05:00,
2013-03-04 02:10:00,37.0,28.2,29.98,ESE,112,2.3,2.3,70,0.00,-RA,,0.00,WeatherDisplay:10.37,2013-03-04 08:10:00,
2013-03-04 02:15:00,37.0,28.2,29.98,ESE,112,2.9,2.9,70,0.00,-RA,,0.00,WeatherDisplay:10.37,2013-03-04 08:15:00,
2013-03-04 02:20:00,37.0,28.2,29.98,ESE,112,2.8,2.8,70,0.00,-RA,,0.00,WeatherDisplay:10.37,2013-03-04 08:20:00,
2013-03-04 02:25:00,36.9,28.3,29.98,SE,135,2.3,2.3,71,0.00,-RA,,0.00,WeatherDisplay:10.37,2013-03-04 08:25:00,
2013-03-04 02:30:00,36.9,28.3,29.96,ESE,112,2.3,2.3,71,0.00,-RA,,0.00,WeatherDisplay:10.37,2013-03-04 08:30:00,
2013-03-04 02:35:00,36.9,28.7,29.96,SE,135,1.0,1.0,72,0.00,-RA,,0.00,WeatherDisplay:10.37,2013-03-04 08:35:00,
2013-03-04 02:40:00,36.9,28.7,29.96,ESE,112,2.4,2.4,72,0.00,-RA,,0.00,WeatherDisplay:10.37,2013-03-04 08:40:00,
2013-03-04 02:45:00,36.9,28.7,29.96,ESE,112,2.3,2.3,72,0.00,-RA,,0.00,WeatherDisplay:10.37,2013-03-04 08:45:00,
2013-03-04 02:50:00,36.7,28.5,29.98,WSW,248,1.1,1.1,72,0.00,-RA,,0.00,WeatherDisplay:10.37,2013-03-04 08:50:00,
2013-03-04 02:55:00,36.5,28.3,29.98,ESE,112,3.4,3.4,72,0.00,-RA,,0.00,WeatherDisplay:10.37,2013-03-04 08:55:00,
2013-03-04 03:00:00,36.5,28.3,29.98,SSE,158,2.3,2.3,72,0.00,OVC,,0.00,WeatherDisplay:10.37,2013-03-04 09:00:00,
2013-03-04 03:05:00,36.5,28.3,29.98,SE,135,2.3,2.3,72,0.00,OVC,,0.00,WeatherDisplay:10.37,2013-03-04 09:05:00,
2013-03-04 03:10:00,36.5,28.3,29.96,SE,135,2.3,2.3,72,0.00,OVC,,0.00,WeatherDisplay:10.37,2013-03-04 09:10:00,
2013-03-04 03:15:00,36.3,28.2,29.96,NE,45,3.4,3.4,72,0.00,OVC,,0.00,WeatherDisplay:10.37,2013-03-04 09:15:00,
2013-03-04 03:20:00,36.3,28.2,29.96,ESE,112,2.4,2.4,72,0.00,OVC,,0.00,WeatherDisplay:10.37,2013-03-04 09:20:00,
2013-03-04 03:25:00,36.3,28.2,29.96,ESE,112,2.3,2.3,72,0.00,OVC,,0.00,WeatherDisplay:10.37,2013-03-04 09:25:00,
2013-03-04 03:30:00,36.5,28.3,29.95,ESE,112,2.3,2.3,72,0.00,OVC,,0.00,WeatherDisplay:10.37,2013-03-04 09:30:00,
2013-03-04 03:35:00,36.3,28.2,29.95,ENE,68,2.3,2.3,72,0.00,OVC,,0.00,WeatherDisplay:10.37,2013-03-04 09:35:00,
2013-03-04 03:40:00,36.3,28.2,29.95,ESE,112,2.5,2.5,72,0.00,OVC,,0.00,WeatherDisplay:10.37,2013-03-04 09:40:00,
2013-03-04 03:45:00,36.1,28.0,29.95,NNE,22,1.5,1.5,72,0.00,OVC,,0.00,WeatherDisplay:10.37,2013-03-04 09:45:00,
2013-03-04 03:50:00,36.1,28.0,29.94,NE,45,2.3,2.3,72,0.00,OVC,,0.00,WeatherDisplay:10.37,2013-03-04 09:50:00,
2013-03-04 03:55:00,36.0,27.8,29.94,East,90,2.3,2.3,72,0.00,OVC,,0.00,WeatherDisplay:10.37,2013-03-04 09:55:00,
2013-03-04 04:00:00,36.1,28.0,29.94,SSE,158,1.1,1.5,72,0.00,OVC,,0.00,WeatherDisplay:10.37,2013-03-04 10:00:00,
2013-03-04 04:05:00,36.0,27.5,29.94,ESE,112,3.4,3.4,71,0.00,OVC,,0.00,WeatherDisplay:10.37,2013-03-04 10:05:00,
2013-03-04 04:10:00,36.0,27.5,29.94,ESE,112,2.6,2.6,71,0.00,OVC,,0.00,WeatherDisplay:10.37,2013-03-04 10:10:00,
2013-03-04 04:15:00,36.1,28.0,29.94,ESE,112,3.4,3.4,72,0.00,OVC,,0.00,WeatherDisplay:10.37,2013-03-04 10:15:00,
2013-03-04 04:20:00,36.1,27.6,29.94,ENE,68,3.4,3.4,71,0.00,OVC,,0.00,WeatherDisplay:10.37,2013-03-04 10:20:00,
2013-03-04 04:25:00,36.0,27.5,29.94,ESE,112,1.6,1.6,71,0.00,OVC,,0.00,WeatherDisplay:10.37,2013-03-04 10:25:00,
2013-03-04 04:30:00,36.1,27.6,29.95,ESE,112,1.6,1.6,71,0.00,OVC,,0.00,WeatherDisplay:10.37,2013-03-04 10:30:00,
2013-03-04 04:35:00,36.1,27.3,29.95,ESE,112,2.3,2.3,70,0.00,OVC,,0.00,WeatherDisplay:10.37,2013-03-04 10:35:00,
2013-03-04 04:40:00,36.1,27.3,29.95,ESE,112,1.2,1.6,70,0.00,OVC,,0.00,WeatherDisplay:10.37,2013-03-04 10:40:00,
2013-03-04 04:45:00,36.1,26.9,29.95,ENE,68,5.8,5.8,69,0.00,OVC,,0.00,WeatherDisplay:10.37,2013-03-04 10:45:00,
2013-03-04 04:50:00,36.1,26.9,29.94,ESE,112,4.0,4.0,69,0.00,OVC,,0.00,WeatherDisplay:10.37,2013-03-04 10:50:00,
2013-03-04 04:55:00,36.1,26.9,29.94,ESE,112,2.5,2.5,69,0.00,OVC,,0.00,WeatherDisplay:10.37,2013-03-04 10:55:00,
2013-03-04 05:00:00,36.1,26.9,29.94,ESE,112,3.4,3.4,69,0.00,OVC,,0.00,WeatherDisplay:10.37,2013-03-04 11:00:00,
2013-03-04 05:05:00,36.1,26.9,29.94,SE,135,1.1,2.3,69,0.00,OVC,,0.00,WeatherDisplay:10.37,2013-03-04 11:05:00,
2013-03-04 05:10:00,36.3,26.8,29.93,East,90,1.4,2.0,68,0.00,OVC,,0.00,WeatherDisplay:10.37,2013-03-04 11:10:00,
2013-03-04 05:15:00,36.1,26.6,29.93,SE,135,4.6,4.6,68,0.00,OVC,,0.00,WeatherDisplay:10.37,2013-03-04 11:15:00,
2013-03-04 05:20:00,36.1,26.6,29.93,ESE,112,3.4,3.4,68,0.00,OVC,,0.00,WeatherDisplay:10.37,2013-03-04 11:20:00,
2013-03-04 05:25:00,36.1,26.6,29.93,ESE,112,2.3,2.3,68,0.00,OVC,,0.00,WeatherDisplay:10.37,2013-03-04 11:25:00,
2013-03-04 05:30:00,36.1,26.6,29.92,ESE,112,5.8,5.8,68,0.00,OVC,,0.00,WeatherDisplay:10.37,2013-03-04 11:30:00,
2013-03-04 05:35:00,36.1,26.6,29.92,ESE,112,2.5,2.9,68,0.00,OVC,,0.00,WeatherDisplay:10.37,2013-03-04 11:35:00,
2013-03-04 05:40:00,36.3,26.8,29.92,ESE,112,3.4,3.4,68,0.00,OVC,,0.00,WeatherDisplay:10.37,2013-03-04 11:40:00,
2013-03-04 05:45:00,36.1,26.6,29.92,East,90,2.7,2.7,68,0.00,OVC,,0.00,WeatherDisplay:10.37,2013-03-04 11:45:00,
2013-03-04 05:50:00,36.1,26.6,29.92,East,90,2.6,2.6,68,0.00,OVC,,0.00,WeatherDisplay:10.37,2013-03-04 11:50:00,
2013-03-04 05:55:00,36.1,26.6,29.92,ESE,112,3.4,3.4,68,0.00,OVC,,0.00,WeatherDisplay:10.37,2013-03-04 11:55:00,
2013-03-04 06:00:00,36.1,26.2,29.92,ESE,112,3.4,3.4,67,0.00,BKN,,0.00,WeatherDisplay:10.37,2013-03-04 12:00:00,
2013-03-04 06:05:00,36.1,26.2,29.92,East,90,5.8,5.8,67,0.00,BKN,,0.00,WeatherDisplay:10.37,2013-03-04 12:05:00,
2013-03-04 06:10:00,36.1,26.2,29.92,East,90,5.8,5.8,67,0.00,BKN,,0.00,WeatherDisplay:10.37,2013-03-04 12:10:00,
2013-03-04 06:15:00,36.1,26.2,29.92,ESE,112,2.1,2.1,67,0.00,BKN,,0.00,WeatherDisplay:10.37,2013-03-04 12:15:00,
2013-03-04 06:20:00,36.1,26.2,29.92,ESE,112,2.6,2.6,67,0.00,BKN,,0.00,WeatherDisplay:10.37,2013-03-04 12:20:00,
2013-03-04 06:25:00,36.1,26.2,29.92,East,90,3.4,3.4,67,0.00,BKN,,0.00,WeatherDisplay:10.37,2013-03-04 12:25:00,
2013-03-04 06:30:00,36.1,26.2,29.92,SE,135,3.5,3.5,67,0.00,BKN,,0.00,WeatherDisplay:10.37,2013-03-04 12:30:00,
2013-03-04 06:35:00,36.3,26.4,29.92,ESE,112,5.0,5.0,67,0.00,BKN,,0.00,WeatherDisplay:10.37,2013-03-04 12:35:00,
2013-03-04 06:40:00,36.3,26.0,29.92,SE,135,3.6,3.6,66,0.00,BKN,,0.00,WeatherDisplay:10.37,2013-03-04 12:40:00,
2013-03-04 06:45:00,36.3,26.0,29.92,ESE,112,4.6,4.6,66,0.00,BKN,,0.00,WeatherDisplay:10.37,2013-03-04 12:45:00,
2013-03-04 06:50:00,36.3,26.0,29.92,ESE,112,3.4,3.4,66,0.00,BKN,,0.00,WeatherDisplay:10.37,2013-03-04 12:50:00,
2013-03-04 06:55:00,36.3,26.0,29.92,SSE,158,3.4,3.4,66,0.00,BKN,,0.00,WeatherDisplay:10.37,2013-03-04 12:55:00,
2013-03-04 07:00:00,36.3,26.0,29.92,SE,135,1.1,1.9,66,0.00,BKN,,0.00,WeatherDisplay:10.37,2013-03-04 13:00:00,
2013-03-04 07:05:00,36.9,26.2,29.92,East,90,2.3,2.3,65,0.00,BKN,,0.00,WeatherDisplay:10.37,2013-03-04 13:05:00,
2013-03-04 07:10:00,36.7,26.0,29.91,ESE,112,4.6,4.6,65,0.00,BKN,,0.00,WeatherDisplay:10.37,2013-03-04 13:10:00,
2013-03-04 07:15:00,36.7,26.0,29.91,SE,135,3.4,3.4,65,0.00,BKN,,0.00,WeatherDisplay:10.37,2013-03-04 13:15:00,
2013-03-04 07:20:00,36.9,25.8,29.91,ESE,112,3.4,3.4,64,0.00,BKN,,0.00,WeatherDisplay:10.37,2013-03-04 13:20:00,
2013-03-04 07:25:00,36.9,25.8,29.91,SE,135,4.8,4.8,64,0.00,BKN,,0.00,WeatherDisplay:10.37,2013-03-04 13:25:00,
2013-03-04 07:30:00,37.2,26.2,29.89,ESE,112,2.8,3.0,64,0.00,BKN,,0.00,WeatherDisplay:10.37,2013-03-04 13:30:00,
2013-03-04 07:35:00,37.0,26.0,29.89,ESE,112,3.4,3.4,64,0.00,BKN,,0.00,WeatherDisplay:10.37,2013-03-04 13:35:00,
2013-03-04 07:40:00,37.0,26.0,29.89,East,90,1.7,2.6,64,0.00,BKN,,0.00,WeatherDisplay:10.37,2013-03-04 13:40:00,
2013-03-04 07:45:00,37.0,26.0,29.89,SE,135,4.7,4.7,64,0.00,BKN,,0.00,WeatherDisplay:10.37,2013-03-04 13:45:00,
2013-03-04 07:50:00,37.2,25.8,29.89,East,90,4.6,4.6,63,0.00,BKN,,0.00,WeatherDisplay:10.37,2013-03-04 13:50:00,
2013-03-04 07:55:00,37.6,25.7,29.89,NE,45,4.6,4.6,62,0.00,BKN,,0.00,WeatherDisplay:10.37,2013-03-04 13:55:00,
2013-03-04 08:00:00,37.6,25.7,29.89,NNE,22,3.6,3.6,62,0.00,OVC,,0.00,WeatherDisplay:10.37,2013-03-04 14:00:00,
2013-03-04 08:05:00,37.8,25.9,29.89,ENE,68,3.4,3.4,62,0.00,OVC,,0.00,WeatherDisplay:10.37,2013-03-04 14:05:00,
2013-03-04 08:10:00,37.9,26.1,29.90,ESE,112,3.9,3.9,62,0.00,OVC,,0.00,WeatherDisplay:10.37,2013-03-04 14:10:00,
2013-03-04 08:15:00,37.9,25.7,29.90,ENE,68,4.6,4.6,61,0.00,OVC,,0.00,WeatherDisplay:10.37,2013-03-04 14:15:00,
2013-03-04 08:20:00,38.3,26.0,29.90,ESE,112,4.6,4.6,61,0.00,OVC,,0.00,WeatherDisplay:10.37,2013-03-04 14:20:00,
2013-03-04 08:25:00,38.3,26.0,29.90,ESE,112,3.4,3.4,61,0.00,OVC,,0.00,WeatherDisplay:10.37,2013-03-04 14:25:00,
2013-03-04 08:30:00,38.5,26.2,29.89,ESE,112,3.8,3.8,61,0.00,OVC,,0.00,WeatherDisplay:10.37,2013-03-04 14:30:00,
2013-03-04 08:35:00,38.7,25.6,29.89,ESE,112,5.1,5.1,59,0.00,OVC,,0.00,WeatherDisplay:10.37,2013-03-04 14:35:00,
2013-03-04 08:40:00,39.0,25.9,29.89,ESE,112,4.6,4.6,59,0.00,OVC,,0.00,WeatherDisplay:10.37,2013-03-04 14:40:00,
2013-03-04 08:45:00,39.2,25.6,29.89,WSW,248,2.3,2.8,58,0.00,OVC,,0.00,WeatherDisplay:10.37,2013-03-04 14:45:00,
2013-03-04 08:50:00,39.2,25.6,29.87,ESE,112,2.3,2.5,58,0.00,OVC,,0.00,WeatherDisplay:10.37,2013-03-04 14:50:00,
2013-03-04 08:55:00,39.4,25.4,29.87,NE,45,3.4,3.4,57,0.00,OVC,,0.00,WeatherDisplay:10.37,2013-03-04 14:55:00,
2013-03-04 09:00:00,39.7,25.7,29.87,SE,135,2.8,3.3,57,0.00,OVC,,0.00,WeatherDisplay:10.37,2013-03-04 15:00:00,
2013-03-04 09:05:00,40.1,25.6,29.87,ESE,112,5.8,5.8,56,0.00,OVC,,0.00,WeatherDisplay:10.37,2013-03-04 15:05:00,
2013-03-04 09:10:00,39.9,25.5,29.86,ESE,112,3.4,3.4,56,0.00,OVC,,0.00,WeatherDisplay:10.37,2013-03-04 15:10:00,
2013-03-04 09:15:00,40.5,26.0,29.86,East,90,3.9,3.9,56,0.00,OVC,,0.00,WeatherDisplay:10.37,2013-03-04 15:15:00,
2013-03-04 09:20:00,40.6,25.7,29.86,ESE,112,4.6,4.6,55,0.00,OVC,,0.00,WeatherDisplay:10.37,2013-03-04 15:20:00,
2013-03-04 09:25:00,40.6,25.7,29.86,South,180,3.4,3.4,55,0.00,OVC,,0.00,WeatherDisplay:10.37,2013-03-04 15:25:00,
2013-03-04 09:30:00,40.6,25.7,29.86,ENE,68,1.4,2.7,55,0.00,OVC,,0.00,WeatherDisplay:10.37,2013-03-04 15:30:00,
2013-03-04 09:35:00,40.8,25.4,29.86,ESE,112,4.6,4.6,54,0.00,OVC,,0.00,WeatherDisplay:10.37,2013-03-04 15:35:00,
2013-03-04 09:40:00,41.0,26.1,29.86,ESE,112,4.6,4.6,55,0.00,OVC,,0.00,WeatherDisplay:10.37,2013-03-04 15:40:00,
2013-03-04 09:45:00,41.0,25.6,29.86,ENE,68,3.5,3.5,54,0.00,OVC,,0.00,WeatherDisplay:10.37,2013-03-04 15:45:00,
2013-03-04 09:50:00,41.2,26.2,29.86,SE,135,3.4,3.4,55,0.00,OVC,,0.00,WeatherDisplay:10.37,2013-03-04 15:50:00,
2013-03-04 09:55:00,41.4,25.9,29.86,SE,135,3.4,3.4,54,0.00,OVC,,0.00,WeatherDisplay:10.37,2013-03-04 15:55:00,
2013-03-04 10:00:00,41.5,26.1,29.86,NE,45,1.5,2.3,54,0.00,OVC,,0.00,WeatherDisplay:10.37,2013-03-04 16:00:00,
2013-03-04 10:05:00,41.9,26.4,29.86,NW,315,4.0,4.0,54,0.00,OVC,,0.00,WeatherDisplay:10.37,2013-03-04 16:05:00,
2013-03-04 10:10:00,41.7,26.3,29.86,SE,135,3.7,3.7,54,0.00,OVC,,0.00,WeatherDisplay:10.37,2013-03-04 16:10:00,
2013-03-04 10:15:00,42.1,26.2,29.86,ESE,112,4.6,4.6,53,0.00,OVC,,0.00,WeatherDisplay:10.37,2013-03-04 16:15:00,
2013-03-04 10:20:00,42.3,26.3,29.86,ESE,112,4.0,4.0,53,0.00,OVC,,0.00,WeatherDisplay:10.37,2013-03-04 16:20:00,
2013-03-04 10:25:00,42.6,26.2,29.86,ESE,112,4.9,4.9,52,0.00,OVC,,0.00,WeatherDisplay:10.37,2013-03-04 16:25:00,
2013-03-04 10:30:00,42.6,26.2,29.84,WNW,292,4.6,4.6,52,0.00,OVC,,0.00,WeatherDisplay:10.37,2013-03-04 16:30:00,
2013-03-04 10:35:00,42.8,26.4,29.84,East,90,3.4,3.4,52,0.00,OVC,,0.00,WeatherDisplay:10.37,2013-03-04 16:35:00,
2013-03-04 10:40:00,43.0,26.5,29.84,ESE,112,3.6,3.6,52,0.00,OVC,,0.00,WeatherDisplay:10.37,2013-03-04 16:40:00,
2013-03-04 10:45:00,43.3,26.9,29.84,East,90,3.4,3.4,52,0.00,OVC,,0.00,WeatherDisplay:10.37,2013-03-04 16:45:00,
2013-03-04 10:50:00,43.5,27.0,29.82,SE,135,2.7,2.8,52,0.00,OVC,,0.00,WeatherDisplay:10.37,2013-03-04 16:50:00,
2013-03-04 10:55:00,43.9,26.9,29.82,South,180,4.6,4.6,51,0.00,OVC,,0.00,WeatherDisplay:10.37,2013-03-04 16:55:00,
2013-03-04 11:00:00,43.9,27.4,29.82,ESE,112,5.0,5.0,52,0.00,OVC,,0.00,WeatherDisplay:10.37,2013-03-04 17:00:00,
2013-03-04 11:05:00,44.4,27.9,29.82,SE,135,3.4,3.4,52,0.00,OVC,,0.00,WeatherDisplay:10.37,2013-03-04 17:05:00,
2013-03-04 11:10:00,44.8,28.2,29.82,SW,225,6.9,6.9,52,0.00,OVC,,0.00,WeatherDisplay:10.37,2013-03-04 17:10:00,
2013-03-04 11:15:00,45.3,27.8,29.82,ESE,112,4.2,4.2,50,0.00,OVC,,0.00,WeatherDisplay:10.37,2013-03-04 17:15:00,
2013-03-04 11:20:00,45.7,28.1,29.82,ESE,112,5.8,5.8,50,0.00,OVC,,0.00,WeatherDisplay:10.37,2013-03-04 17:20:00,
2013-03-04 11:25:00,46.2,28.1,29.82,East,90,7.4,7.4,49,0.00,OVC,,0.00,WeatherDisplay:10.37,2013-03-04 17:25:00,
2013-03-04 11:30:00,46.2,28.1,29.81,SE,135,4.7,4.7,49,0.00,OVC,,0.00,WeatherDisplay:10.37,2013-03-04 17:30:00,
2013-03-04 11:35:00,47.3,29.6,29.81,ESE,112,3.4,3.4,50,0.00,OVC,,0.00,WeatherDisplay:10.37,2013-03-04 17:35:00,
2013-03-04 11:40:00,48.0,29.2,29.81,ESE,112,3.7,3.7,48,0.00,OVC,,0.00,WeatherDisplay:10.37,2013-03-04 17:40:00,
2013-03-04 11:45:00,48.9,29.6,29.81,ESE,112,4.9,4.9,47,0.00,OVC,,0.00,WeatherDisplay:10.37,2013-03-04 17:45:00,
2013-03-04 11:50:00,49.1,29.2,29.79,SE,135,8.2,8.2,46,0.00,OVC,,0.00,WeatherDisplay:10.37,2013-03-04 17:50:00,
2013-03-04 11:55:00,49.3,29.4,29.79,East,90,5.8,5.8,46,0.00,OVC,,0.00,WeatherDisplay:10.37,2013-03-04 17:55:00,
2013-03-04 12:00:00,49.5,29.0,29.79,ESE,112,4.6,4.6,45,0.00,BKN,,0.00,WeatherDisplay:10.37,2013-03-04 18:00:00,
2013-03-04 12:05:00,49.8,29.8,29.79,SE,135,5.0,5.0,46,0.00,BKN,,0.00,WeatherDisplay:10.37,2013-03-04 18:05:00,
2013-03-04 12:10:00,50.0,30.0,29.78,SE,135,5.0,5.0,46,0.00,BKN,,0.00,WeatherDisplay:10.37,2013-03-04 18:10:00,
2013-03-04 12:15:00,50.4,29.8,29.78,NE,45,3.4,3.6,45,0.00,BKN,,0.00,WeatherDisplay:10.37,2013-03-04 18:15:00,
2013-03-04 12:20:00,50.7,30.1,29.78,East,90,5.8,5.8,45,0.00,BKN,,0.00,WeatherDisplay:10.37,2013-03-04 18:20:00,
2013-03-04 12:21:00,50.9,30.8,29.78,ESE,112,3.4,3.4,46,0.00,BKN,,0.00,WeatherDisplay:10.37,2013-03-04 18:21:00,
2013-03-04 12:25:00,50.7,30.1,29.78,ESE,112,5.8,5.8,45,0.00,BKN,,0.00,WeatherDisplay:10.37,2013-03-04 18:25:00,
2013-03-04 12:29:00,50.9,30.8,29.78,ESE,112,3.4,3.4,46,0.00,BKN,,0.00,WeatherDisplay:10.37,2013-03-04 18:29:00,
2013-03-04 12:34:00,51.3,31.2,29.78,East,90,4.6,4.6,46,0.00,BKN,,0.00,WeatherDisplay:10.37,2013-03-04 18:34:00,
2013-03-04 12:39:00,51.4,30.8,29.78,WSW,248,5.8,5.8,45,0.00,BKN,,0.00,WeatherDisplay:10.37,2013-03-04 18:39:00,
2013-03-04 12:44:00,51.4,31.3,29.78,ESE,112,3.4,3.4,46,0.00,BKN,,0.00,WeatherDisplay:10.37,2013-03-04 18:44:00,
2013-03-04 12:49:00,52.0,31.8,29.77,NE,45,2.4,2.4,46,0.00,BKN,,0.00,WeatherDisplay:10.37,2013-03-04 18:49:00,
2013-03-04 12:54:00,52.0,31.8,29.77,SE,135,2.5,2.5,46,0.00,BKN,,0.00,WeatherDisplay:10.37,2013-03-04 18:54:00,
2013-03-04 12:59:00,52.2,32.5,29.77,ESE,112,2.9,2.9,47,0.00,BKN,,0.00,WeatherDisplay:10.37,2013-03-04 18:59:00,
2013-03-04 13:04:00,52.2,32.0,29.77,ENE,68,5.8,5.8,46,0.00,BKN,,0.00,WeatherDisplay:10.37,2013-03-04 19:04:00,
2013-03-04 13:09:00,52.2,32.5,29.76,SSE,158,1.6,2.6,47,0.00,BKN,,0.00,WeatherDisplay:10.37,2013-03-04 19:09:00,
2013-03-04 13:14:00,52.2,32.0,29.76,ESE,112,2.7,2.7,46,0.00,BKN,,0.00,WeatherDisplay:10.37,2013-03-04 19:14:00,
2013-03-04 13:19:00,52.7,32.5,29.76,ESE,112,4.6,4.6,46,0.00,BKN,,0.00,WeatherDisplay:10.37,2013-03-04 19:19:00,
2013-03-04 13:24:00,52.7,32.5,29.76,ESE,112,2.8,2.8,46,0.00,BKN,,0.00,WeatherDisplay:10.37,2013-03-04 19:24:00,
2013-03-04 13:29:00,52.7,32.5,29.76,ESE,112,5.0,5.0,46,0.00,BKN,,0.00,WeatherDisplay:10.37,2013-03-04 19:29:00,
2013-03-04 13:34:00,52.7,32.5,29.76,ESE,112,3.4,3.4,46,0.00,BKN,,0.00,WeatherDisplay:10.37,2013-03-04 19:34:00,
2013-03-04 13:39:00,52.7,33.0,29.76,East,90,3.4,3.4,47,0.00,BKN,,0.00,WeatherDisplay:10.37,2013-03-04 19:39:00,
2013-03-04 13:44:00,52.7,33.0,29.76,SSE,158,2.6,2.6,47,0.00,OVC,,0.00,WeatherDisplay:10.37,2013-03-04 19:44:00,
2013-03-04 13:49:00,52.3,32.7,29.75,ESE,112,7.2,7.2,47,0.00,OVC,,0.00,WeatherDisplay:10.37,2013-03-04 19:49:00,
2013-03-04 13:54:00,52.3,32.7,29.75,ESE,112,2.8,3.1,47,0.00,OVC,,0.00,WeatherDisplay:10.37,2013-03-04 19:54:00,
2013-03-04 13:59:00,52.2,33.0,29.75,SW,225,3.1,3.1,48,0.00,OVC,,0.00,WeatherDisplay:10.37,2013-03-04 19:59:00,
2013-03-04 14:04:00,52.3,33.2,29.75,ENE,68,3.4,3.4,48,0.00,OVC,,0.00,WeatherDisplay:10.37,2013-03-04 20:04:00,
2013-03-04 14:09:00,52.2,33.0,29.75,ESE,112,3.4,3.4,48,0.00,OVC,,0.00,WeatherDisplay:10.37,2013-03-04 20:09:00,
2013-03-04 14:14:00,52.0,32.9,29.75,ESE,112,4.6,4.6,48,0.00,OVC,,0.00,WeatherDisplay:10.37,2013-03-04 20:14:00,
2013-03-04 14:19:00,52.0,32.9,29.75,ENE,68,2.0,2.3,48,0.00,OVC,,0.00,WeatherDisplay:10.37,2013-03-04 20:19:00,
2013-03-04 14:24:00,52.2,33.6,29.75,ESE,112,2.3,2.3,49,0.00,OVC,,0.00,WeatherDisplay:10.37,2013-03-04 20:24:00,
2013-03-04 14:29:00,52.7,34.1,29.74,East,90,2.7,2.7,49,0.00,OVC,,0.00,WeatherDisplay:10.37,2013-03-04 20:29:00,
2013-03-04 14:34:00,53.2,34.0,29.74,ESE,112,5.1,5.1,48,0.00,OVC,,0.00,WeatherDisplay:10.37,2013-03-04 20:34:00,
2013-03-04 14:39:00,53.4,34.2,29.74,South,180,4.6,4.6,48,0.00,OVC,,0.00,WeatherDisplay:10.37,2013-03-04 20:39:00,
2013-03-04 14:44:00,53.4,34.2,29.74,ENE,68,3.4,3.7,48,0.00,OVC,,0.00,WeatherDisplay:10.37,2013-03-04 20:44:00,
2013-03-04 14:49:00,53.6,34.4,29.74,SE,135,1.3,3.1,48,0.00,OVC,,0.00,WeatherDisplay:10.37,2013-03-04 20:49:00,
2013-03-04 14:54:00,54.1,34.9,29.74,East,90,4.6,4.6,48,0.00,OVC,,0.00,WeatherDisplay:10.37,2013-03-04 20:54:00,
2013-03-04 14:59:00,54.3,35.0,29.74,ENE,68,2.3,2.6,48,0.00,OVC,,0.00,WeatherDisplay:10.37,2013-03-04 20:59:00,
2013-03-04 15:04:00,54.5,35.2,29.74,SE,135,1.6,2.4,48,0.00,OVC,,0.00,WeatherDisplay:10.37,2013-03-04 21:04:00,
2013-03-04 15:09:00,54.3,35.0,29.74,East,90,4.7,4.7,48,0.00,OVC,,0.00,WeatherDisplay:10.37,2013-03-04 21:09:00,
2013-03-04 15:14:00,54.5,35.2,29.74,ENE,68,4.7,4.7,48,0.00,OVC,,0.00,WeatherDisplay:10.37,2013-03-04 21:14:00,
2013-03-04 15:19:00,54.5,35.2,29.74,ESE,112,4.4,4.4,48,0.00,OVC,,0.00,WeatherDisplay:10.37,2013-03-04 21:19:00,
2013-03-04 15:24:00,54.5,35.2,29.74,ESE,112,4.6,4.6,48,0.00,OVC,,0.00,WeatherDisplay:10.37,2013-03-04 21:24:00,
2013-03-04 15:29:00,54.5,35.2,29.74,ESE,112,3.4,3.4,48,0.00,OVC,,0.00,WeatherDisplay:10.37,2013-03-04 21:29:00,
2013-03-04 15:34:00,54.3,35.5,29.74,ESE,112,4.6,4.6,49,0.00,OVC,,0.00,WeatherDisplay:10.37,2013-03-04 21:34:00,
2013-03-04 15:39:00,54.0,35.7,29.74,East,90,3.4,3.4,50,0.00,OVC,,0.00,WeatherDisplay:10.37,2013-03-04 21:39:00,
2013-03-04 15:44:00,54.1,35.9,29.74,South,180,3.4,3.4,50,0.00,OVC,,0.00,WeatherDisplay:10.37,2013-03-04 21:44:00,
2013-03-04 15:49:00,54.1,35.9,29.73,East,90,3.5,3.5,50,0.00,OVC,,0.00,WeatherDisplay:10.37,2013-03-04 21:49:00,
2013-03-04 15:54:00,54.1,35.9,29.73,ESE,112,3.4,3.4,50,0.00,OVC,,0.00,WeatherDisplay:10.37,2013-03-04 21:54:00,
2013-03-04 15:59:00,53.6,35.9,29.73,ESE,112,3.4,3.4,51,0.00,BKN,,0.00,WeatherDisplay:10.37,2013-03-04 21:59:00,
2013-03-04 16:04:00,53.6,35.9,29.73,WSW,248,4.6,4.6,51,0.00,BKN,,0.00,WeatherDisplay:10.37,2013-03-04 22:04:00,
2013-03-04 16:09:00,53.4,35.7,29.73,East,90,3.4,3.4,51,0.00,BKN,,0.00,WeatherDisplay:10.37,2013-03-04 22:09:00,
2013-03-04 16:14:00,53.4,36.2,29.73,SW,225,1.6,2.5,52,0.00,BKN,,0.00,WeatherDisplay:10.37,2013-03-04 22:14:00,
2013-03-04 16:19:00,52.7,35.6,29.73,NNW,338,3.0,3.0,52,0.00,BKN,,0.00,WeatherDisplay:10.37,2013-03-04 22:19:00,
2013-03-04 16:24:00,52.7,36.0,29.73,SE,135,5.0,5.0,53,0.00,BKN,,0.00,WeatherDisplay:10.37,2013-03-04 22:24:00,
2013-03-04 16:29:00,52.7,36.0,29.73,ESE,112,3.4,3.4,53,0.00,BKN,,0.00,WeatherDisplay:10.37,2013-03-04 22:29:00,
2013-03-04 16:34:00,52.3,36.2,29.73,ESE,112,3.6,3.6,54,0.00,BKN,,0.00,WeatherDisplay:10.37,2013-03-04 22:34:00,
2013-03-04 16:39:00,52.3,36.2,29.73,East,90,2.7,2.7,54,0.00,BKN,,0.00,WeatherDisplay:10.37,2013-03-04 22:39:00,
2013-03-04 16:44:00,52.2,36.0,29.73,East,90,3.4,3.4,54,0.00,BKN,,0.00,WeatherDisplay:10.37,2013-03-04 22:44:00,
2013-03-04 16:49:00,52.2,36.5,29.73,ENE,68,4.6,4.6,55,0.00,BKN,,0.00,WeatherDisplay:10.37,2013-03-04 22:49:00,
2013-03-04 16:55:00,52.0,36.3,29.73,ESE,112,2.3,2.3,55,0.00,BKN,,0.00,WeatherDisplay:10.37,2013-03-04 22:55:00,
2013-03-04 17:00:00,52.0,36.8,29.73,ESE,112,2.3,2.3,56,0.00,BKN,,0.00,WeatherDisplay:10.37,2013-03-04 23:00:00,
2013-03-04 17:05:00,51.8,36.6,29.73,ENE,68,2.9,2.9,56,0.00,BKN,,0.00,WeatherDisplay:10.37,2013-03-04 23:05:00,
2013-03-04 17:10:00,51.6,36.4,29.74,ESE,112,3.6,3.6,56,0.00,BKN,,0.00,WeatherDisplay:10.37,2013-03-04 23:10:00,
2013-03-04 17:15:00,51.4,36.7,29.74,ESE,112,2.3,2.3,57,0.00,BKN,,0.00,WeatherDisplay:10.37,2013-03-04 23:15:00,
2013-03-04 17:20:00,51.4,36.7,29.74,SW,225,3.5,3.5,57,0.00,BKN,,0.00,WeatherDisplay:10.37,2013-03-04 23:20:00,
2013-03-04 17:25:00,51.6,37.3,29.74,NNE,22,2.3,2.3,58,0.00,BKN,,0.00,WeatherDisplay:10.37,2013-03-04 23:25:00,
2013-03-04 17:30:00,51.4,37.1,29.74,ESE,112,2.6,2.6,58,0.00,BKN,,0.00,WeatherDisplay:10.37,2013-03-04 23:30:00,
2013-03-04 17:35:00,51.3,37.0,29.74,WNW,292,2.2,2.2,58,0.00,BKN,,0.00,WeatherDisplay:10.37,2013-03-04 23:35:00,
2013-03-04 17:40:00,51.3,37.4,29.74,ESE,112,2.4,2.4,59,0.00,BKN,,0.00,WeatherDisplay:10.37,2013-03-04 23:40:00,
2013-03-04 17:45:00,51.3,37.8,29.74,ESE,112,2.3,2.3,60,0.00,BKN,,0.00,WeatherDisplay:10.37,2013-03-04 23:45:00,
2013-03-04 17:50:00,51.3,37.8,29.75,ESE,112,1.7,1.7,60,0.00,BKN,,0.00,WeatherDisplay:10.37,2013-03-04 23:50:00,
2013-03-04 17:55:00,51.3,37.8,29.75,ESE,112,2.3,2.3,60,0.00,BKN,,0.00,WeatherDisplay:10.37,2013-03-04 23:55:00,
2013-03-04 18:00:00,50.9,37.9,29.75,East,90,2.3,2.3,61,0.00,OVC,,0.00,WeatherDisplay:10.37,2013-03-05 00:00:00,
2013-03-04 18:05:00,50.7,37.8,29.75,ENE,68,1.1,1.1,61,0.00,OVC,,0.00,WeatherDisplay:10.37,2013-03-05 00:05:00,
2013-03-04 18:10:00,50.7,37.8,29.75,ENE,68,0.0,1.0,61,0.00,OVC,,0.00,WeatherDisplay:10.37,2013-03-05 00:10:00,
2013-03-04 18:15:00,50.9,38.3,29.75,East,90,2.6,2.6,62,0.00,OVC,,0.00,WeatherDisplay:10.37,2013-03-05 00:15:00,
2013-03-04 18:20:00,50.7,38.6,29.75,ENE,68,1.4,1.4,63,0.00,OVC,,0.00,WeatherDisplay:10.37,2013-03-05 00:20:00,
2013-03-04 18:25:00,50.9,39.1,29.75,ESE,112,1.6,1.6,64,0.00,OVC,,0.00,WeatherDisplay:10.37,2013-03-05 00:25:00,
2013-03-04 18:30:00,50.9,39.1,29.76,East,90,0.0,1.0,64,0.00,OVC,,0.00,WeatherDisplay:10.37,2013-03-05 00:30:00,
2013-03-04 18:35:00,50.9,39.1,29.76,East,90,1.9,1.9,64,0.00,OVC,,0.00,WeatherDisplay:10.37,2013-03-05 00:35:00,
2013-03-04 18:40:00,50.7,39.0,29.76,ESE,112,2.3,2.3,64,0.00,OVC,,0.00,WeatherDisplay:10.37,2013-03-05 00:40:00,
2013-03-04 18:45:00,50.7,39.4,29.76,SE,135,1.2,1.4,65,0.00,OVC,,0.00,WeatherDisplay:10.37,2013-03-05 00:45:00,
2013-03-04 18:50:00,50.5,39.2,29.76,ESE,112,0.0,1.2,65,0.00,OVC,,0.00,WeatherDisplay:10.37,2013-03-05 00:50:00,
2013-03-04 18:55:00,50.7,39.4,29.76,ESE,112,2.3,2.3,65,0.00,OVC,,0.00,WeatherDisplay:10.37,2013-03-05 00:55:00,
2013-03-04 19:00:00,50.5,39.2,29.76,ESE,112,1.5,1.5,65,0.00,OVC,,0.00,WeatherDisplay:10.37,2013-03-05 01:00:00,
2013-03-04 19:05:00,50.5,39.2,29.76,ESE,112,0.0,1.2,65,0.00,OVC,,0.00,WeatherDisplay:10.37,2013-03-05 01:05:00,
2013-03-04 19:10:00,50.5,39.2,29.77,ESE,112,1.1,1.1,65,0.00,OVC,,0.00,WeatherDisplay:10.37,2013-03-05 01:10:00,
2013-03-04 19:15:00,50.5,39.6,29.77,South,180,1.2,1.2,66,0.00,OVC,,0.00,WeatherDisplay:10.37,2013-03-05 01:15:00,
2013-03-04 19:20:00,50.5,39.6,29.77,ESE,112,0.0,0.8,66,0.00,OVC,,0.00,WeatherDisplay:10.37,2013-03-05 01:20:00,
2013-03-04 19:25:00,50.4,39.4,29.77,ESE,112,2.0,2.0,66,0.00,OVC,,0.00,WeatherDisplay:10.37,2013-03-05 01:25:00,
2013-03-04 19:30:00,50.4,39.8,29.77,SE,135,1.6,1.6,67,0.00,OVC,,0.00,WeatherDisplay:10.37,2013-03-05 01:30:00,
2013-03-04 19:35:00,50.4,39.4,29.77,ENE,68,1.8,1.8,66,0.00,OVC,,0.00,WeatherDisplay:10.37,2013-03-05 01:35:00,
2013-03-04 19:40:00,50.5,40.0,29.77,South,180,0.0,0.6,67,0.00,OVC,,0.00,WeatherDisplay:10.37,2013-03-05 01:40:00,
2013-03-04 19:45:00,50.5,40.0,29.77,ESE,112,2.3,2.3,67,0.00,OVC,,0.00,WeatherDisplay:10.37,2013-03-05 01:45:00,
2013-03-04 19:50:00,50.5,40.0,29.76,ESE,112,0.0,0.2,67,0.00,OVC,,0.00,WeatherDisplay:10.37,2013-03-05 01:50:00,
2013-03-04 19:55:00,50.5,40.0,29.76,ESE,112,1.5,1.5,67,0.00,OVC,,0.00,WeatherDisplay:10.37,2013-03-05 01:55:00,
2013-03-04 20:00:00,50.4,39.8,29.76,East,90,0.0,0.3,67,0.00,OVC,,0.00,WeatherDisplay:10.37,2013-03-05 02:00:00,
2013-03-04 20:05:00,50.2,39.6,29.76,West,270,0.0,0.2,67,0.00,OVC,,0.00,WeatherDisplay:10.37,2013-03-05 02:05:00,
2013-03-04 20:10:00,50.2,39.6,29.77,ESE,112,0.0,0.0,67,0.00,OVC,,0.00,WeatherDisplay:10.37,2013-03-05 02:10:00,
2013-03-04 20:15:00,50.2,39.6,29.77,SE,135,1.9,1.9,67,0.00,OVC,,0.00,WeatherDisplay:10.37,2013-03-05 02:15:00,
2013-03-04 20:20:00,50.2,39.6,29.77,ESE,112,1.1,1.1,67,0.00,OVC,,0.00,WeatherDisplay:10.37,2013-03-05 02:20:00,
2013-03-04 20:25:00,50.0,39.5,29.77,ESE,112,1.2,1.2,67,0.00,OVC,,0.00,WeatherDisplay:10.37,2013-03-05 02:25:00,
2013-03-04 20:30:00,50.0,39.8,29.77,East,90,0.0,0.2,68,0.00,OVC,,0.00,WeatherDisplay:10.37,2013-03-05 02:30:00,
2013-03-04 20:35:00,50.0,40.2,29.77,WSW,248,0.0,0.3,69,0.00,OVC,,0.00,WeatherDisplay:10.37,2013-03-05 02:35:00,
2013-03-04 20:40:00,50.0,40.2,29.77,NW,315,0.0,0.2,69,0.00,OVC,,0.00,WeatherDisplay:10.37,2013-03-05 02:40:00,
2013-03-04 20:45:00,50.0,40.2,29.77,ESE,112,0.0,0.1,69,0.00,OVC,,0.00,WeatherDisplay:10.37,2013-03-05 02:45:00,
2013-03-04 20:50:00,50.0,40.6,29.77,ESE,112,2.3,2.3,70,0.00,OVC,,0.00,WeatherDisplay:10.37,2013-03-05 02:50:00,
2013-03-04 20:55:00,50.0,41.3,29.77,NNE,22,1.1,1.1,72,0.00,OVC,,0.00,WeatherDisplay:10.37,2013-03-05 02:55:00,
2013-03-04 21:00:00,50.0,41.3,29.77,SW,225,0.0,0.5,72,0.00,OVC,,0.00,WeatherDisplay:10.37,2013-03-05 03:00:00,
2013-03-04 21:05:00,50.0,41.3,29.77,ESE,112,0.0,0.3,72,0.00,OVC,,0.00,WeatherDisplay:10.37,2013-03-05 03:05:00,
2013-03-04 21:10:00,50.0,41.7,29.77,East,90,0.0,0.1,73,0.00,OVC,,0.00,WeatherDisplay:10.37,2013-03-05 03:10:00,
2013-03-04 21:15:00,50.0,41.7,29.77,ESE,112,0.0,0.0,73,0.00,OVC,,0.00,WeatherDisplay:10.37,2013-03-05 03:15:00,
2013-03-04 21:20:00,49.8,41.2,29.77,South,180,0.0,0.0,72,0.00,OVC,,0.00,WeatherDisplay:10.37,2013-03-05 03:20:00,
2013-03-04 21:25:00,49.5,39.7,29.77,NE,45,0.0,0.0,69,0.00,OVC,,0.00,WeatherDisplay:10.37,2013-03-05 03:25:00,
2013-03-04 21:30:00,49.3,38.8,29.78,West,270,0.0,0.0,67,0.00,OVC,,0.00,WeatherDisplay:10.37,2013-03-05 03:30:00,
2013-03-04 21:35:00,49.1,38.2,29.78,WSW,248,0.0,0.0,66,0.00,OVC,,0.00,WeatherDisplay:10.37,2013-03-05 03:35:00,
2013-03-04 21:40:00,49.1,37.8,29.78,ESE,112,0.0,0.0,65,0.00,OVC,,0.00,WeatherDisplay:10.37,2013-03-05 03:40:00,
2013-03-04 21:45:00,48.6,37.3,29.78,ESE,112,0.0,0.0,65,0.00,BKN,,0.00,WeatherDisplay:10.37,2013-03-05 03:45:00,
2013-03-04 21:50:00,48.6,37.3,29.78,SE,135,0.0,0.0,65,0.00,BKN,,0.00,WeatherDisplay:10.37,2013-03-05 03:50:00,
2013-03-04 21:55:00,48.4,37.2,29.78,SE,135,0.0,0.0,65,0.00,BKN,,0.00,WeatherDisplay:10.37,2013-03-05 03:55:00,
2013-03-04 22:00:00,48.0,36.8,29.78,NW,315,0.0,0.0,65,0.00,BKN,,0.00,WeatherDisplay:10.37,2013-03-05 04:00:00,
2013-03-04 22:05:00,48.0,37.2,29.78,ENE,68,0.0,0.0,66,0.00,BKN,,0.00,WeatherDisplay:10.37,2013-03-05 04:05:00,
2013-03-04 22:10:00,47.8,37.0,29.78,South,180,0.0,0.0,66,0.00,BKN,,0.00,WeatherDisplay:10.37,2013-03-05 04:10:00,
2013-03-04 22:15:00,47.5,36.7,29.78,SE,135,0.0,0.0,66,0.00,BKN,,0.00,WeatherDisplay:10.37,2013-03-05 04:15:00,
2013-03-04 22:20:00,47.7,36.9,29.78,NW,315,0.0,0.0,66,0.00,BKN,,0.00,WeatherDisplay:10.37,2013-03-05 04:20:00,
2013-03-04 22:25:00,47.5,36.7,29.78,NNW,338,0.0,0.0,66,0.00,BKN,,0.00,WeatherDisplay:10.37,2013-03-05 04:25:00,
2013-03-04 22:30:00,47.5,36.3,29.78,SE,135,0.0,0.0,65,0.00,BKN,,0.00,WeatherDisplay:10.37,2013-03-05 04:30:00,
2013-03-04 22:35:00,47.3,36.1,29.78,NNE,22,0.0,0.0,65,0.00,BKN,,0.00,WeatherDisplay:10.37,2013-03-05 04:35:00,
2013-03-04 22:40:00,47.3,36.1,29.78,SE,135,0.0,0.0,65,0.00,BKN,,0.00,WeatherDisplay:10.37,2013-03-05 04:40:00,
2013-03-04 22:45:00,47.1,35.6,29.78,East,90,0.0,0.0,64,0.00,BKN,,0.00,WeatherDisplay:10.37,2013-03-05 04:45:00,
2013-03-04 22:50:00,47.1,35.6,29.78,WNW,292,0.0,0.0,64,0.00,BKN,,0.00,WeatherDisplay:10.37,2013-03-05 04:50:00,
2013-03-04 22:55:00,47.1,35.6,29.78,NW,315,0.0,0.0,64,0.00,BKN,,0.00,WeatherDisplay:10.37,2013-03-05 04:55:00,
2013-03-04 23:00:00,46.9,35.4,29.78,WSW,248,0.0,0.0,64,0.00,OVC,,0.00,WeatherDisplay:10.37,2013-03-05 05:00:00,
2013-03-04 23:05:00,46.9,35.4,29.78,NW,315,0.0,0.0,64,0.00,OVC,,0.00,WeatherDisplay:10.37,2013-03-05 05:05:00,
2013-03-04 23:10:00,46.9,35.4,29.78,NW,315,0.0,0.0,64,0.00,OVC,,0.00,WeatherDisplay:10.37,2013-03-05 05:10:00,
2013-03-04 23:15:00,46.8,34.8,29.78,ENE,68,0.0,0.0,63,0.00,OVC,,0.00,WeatherDisplay:10.37,2013-03-05 05:15:00,
2013-03-04 23:20:00,46.9,35.0,29.78,NNE,22,0.0,0.0,63,0.00,OVC,,0.00,WeatherDisplay:10.37,2013-03-05 05:20:00,
2013-03-04 23:25:00,46.8,34.8,29.78,ESE,112,0.0,0.0,63,0.00,OVC,,0.00,WeatherDisplay:10.37,2013-03-05 05:25:00,
2013-03-04 23:30:00,46.8,34.8,29.77,South,180,0.0,0.0,63,0.00,OVC,,0.00,WeatherDisplay:10.37,2013-03-05 05:30:00,
2013-03-04 23:35:00,46.4,34.5,29.77,WSW,248,0.0,0.0,63,0.00,OVC,,0.00,WeatherDisplay:10.37,2013-03-05 05:35:00,
2013-03-04 23:40:00,46.6,34.7,29.77,South,180,0.0,0.0,63,0.00,OVC,,0.00,WeatherDisplay:10.37,2013-03-05 05:40:00,
2013-03-04 23:45:00,46.4,34.9,29.77,WNW,292,0.0,0.0,64,0.00,OVC,,0.00,WeatherDisplay:10.37,2013-03-05 05:45:00,
2013-03-04 23:50:00,46.4,34.9,29.76,SE,135,0.0,0.0,64,0.00,OVC,,0.00,WeatherDisplay:10.37,2013-03-05 05:50:00,
2013-03-04 23:55:00,46.2,34.3,29.76,WNW,292,0.0,0.0,63,0.00,OVC,,0.00,WeatherDisplay:10.37,2013-03-05 05:55:00,